Time;durP1;ratioP1;P1;durP2;ratioP2;P2;SDS_P1;SDS_P2;PMS_P1;PMS_P2;Temp;Humidity;BMP_temperature;BMP_pressure;BME280_temperature;BME280_humidity;BME280_pressure;Samples;Min_cycle;Max_cycle;Signal;HPM_P1;HPM_P2
2022/03/13 00:00:10;;;;;;;6.55;3.53;;;;;;;20.78;44.96;101441.78;5034445;28;20447;-60
2022/03/13 00:02:35;;;;;;;6.43;3.60;;;;;;;20.74;44.91;101443.81;5033781;28;20025;-60
2022/03/13 00:05:01;;;;;;;5.65;3.30;;;;;;;20.75;44.87;101439.38;5034702;28;20026;-60
2022/03/13 00:07:28;;;;;;;5.88;3.40;;;;;;;20.72;45.02;101434.34;5034144;28;20025;-60
2022/03/13 00:09:53;;;;;;;6.00;3.45;;;;;;;20.70;45.05;101434.47;5033599;28;20037;-60
2022/03/13 00:12:26;;;;;;;6.20;3.60;;;;;;;20.69;44.76;101437.25;5034220;28;20489;-60
2022/03/13 00:14:53;;;;;;;5.28;3.45;;;;;;;20.68;45.21;101436.41;5034144;28;20029;-60
2022/03/13 00:17:27;;;;;;;5.25;3.00;;;;;;;20.65;45.01;101432.19;5034048;28;20028;-61
2022/03/13 00:19:57;;;;;;;5.63;3.63;;;;;;;20.62;45.21;101436.88;5034272;28;20036;-61
2022/03/13 00:22:22;;;;;;;7.22;3.45;;;;;;;20.64;44.82;101432.31;5033816;28;20056;-61
2022/03/13 00:24:48;;;;;;;5.65;3.15;;;;;;;20.61;45.03;101427.25;5034140;28;20483;-61
2022/03/13 00:27:13;;;;;;;6.10;3.58;;;;;;;20.60;45.00;101423.75;5034255;28;20500;-61
2022/03/13 00:29:41;;;;;;;6.82;3.63;;;;;;;20.59;45.04;101423.91;5033267;28;20025;-61
2022/03/13 00:32:07;;;;;;;6.65;3.72;;;;;;;20.60;45.02;101414.97;5034310;28;20030;-61
2022/03/13 00:34:32;;;;;;;5.43;3.28;;;;;;;20.59;44.84;101408.00;5033862;28;20017;-61
2022/03/13 00:36:59;;;;;;;6.43;3.40;;;;;;;20.56;44.98;101398.50;5033198;28;20029;-61
2022/03/13 00:39:24;;;;;;;6.25;3.50;;;;;;;20.55;45.05;101399.44;5034062;28;20473;-61
2022/03/13 00:41:49;;;;;;;5.53;3.30;;;;;;;20.54;44.98;101408.38;5033536;28;20072;-61
2022/03/13 00:44:15;;;;;;;5.72;2.97;;;;;;;20.52;44.95;101402.38;5033393;28;20021;-61
2022/03/13 00:46:40;;;;;;;6.03;3.30;;;;;;;20.52;44.82;101404.16;5033655;28;20029;-61
2022/03/13 00:49:06;;;;;;;5.93;3.50;;;;;;;20.51;45.12;101410.44;5033505;28;20036;-61
2022/03/13 00:51:31;;;;;;;5.72;3.45;;;;;;;20.49;44.87;101402.63;5033243;28;20059;-61
2022/03/13 00:53:57;;;;;;;6.63;3.30;;;;;;;20.48;45.28;101409.72;5033583;28;20045;-61
2022/03/13 00:56:22;;;;;;;6.00;3.30;;;;;;;20.46;44.94;101403.72;5033472;28;20362;-61
2022/03/13 00:58:47;;;;;;;6.53;3.00;;;;;;;20.46;44.92;101400.25;5032841;28;20025;-61
2022/03/13 01:01:13;;;;;;;5.82;3.38;;;;;;;20.43;45.21;101398.69;5033671;28;20332;-61
2022/03/13 01:03:44;;;;;;;5.22;3.25;;;;;;;20.41;45.14;101391.81;5033091;28;20045;-61
2022/03/13 01:06:09;;;;;;;5.25;3.22;;;;;;;20.41;45.28;101389.16;5032814;28;20032;-61
2022/03/13 01:08:35;;;;;;;7.32;3.35;;;;;;;20.38;45.09;101387.63;5033300;28;20025;-61
2022/03/13 01:11:02;;;;;;;7.47;3.80;;;;;;;20.37;45.20;101388.59;5033116;28;20405;-61
2022/03/13 01:13:28;;;;;;;6.93;3.35;;;;;;;20.35;45.19;101389.69;5032813;28;20468;-61
2022/03/13 01:16:00;;;;;;;5.90;3.08;;;;;;;20.31;45.41;101381.16;5033176;28;20120;-61
2022/03/13 01:18:25;;;;;;;7.25;3.85;;;;;;;20.29;45.26;101370.69;5032590;28;20047;-61
2022/03/13 01:20:51;;;;;;;5.97;3.30;;;;;;;20.27;45.37;101366.50;5033203;28;20450;-61
2022/03/13 01:23:16;;;;;;;6.43;3.00;;;;;;;20.27;45.60;101366.50;5033309;28;20028;-61
2022/03/13 01:25:42;;;;;;;6.70;3.45;;;;;;;20.27;45.39;101366.50;5032364;28;20476;-61
2022/03/13 01:28:07;;;;;;;6.00;3.20;;;;;;;20.25;45.54;101363.13;5033226;28;20029;-61
2022/03/13 01:30:32;;;;;;;6.10;3.03;;;;;;;20.23;45.49;101360.59;5033016;28;20087;-60
2022/03/13 01:32:58;;;;;;;6.90;3.23;;;;;;;20.23;45.38;101365.06;5032261;28;20033;-61
2022/03/13 01:35:24;;;;;;;7.68;3.72;;;;;;;20.20;45.74;101358.22;5033364;28;20328;-61
2022/03/13 01:37:51;;;;;;;6.18;3.28;;;;;;;20.21;45.65;101359.06;5032716;28;20025;-61
2022/03/13 01:40:22;;;;;;;6.75;3.65;;;;;;;20.18;45.79;101354.84;5032420;28;20380;-61
2022/03/13 01:42:49;;;;;;;7.30;3.47;;;;;;;20.16;45.73;101353.31;5032700;28;20026;-61
2022/03/13 01:45:17;;;;;;;5.28;3.20;;;;;;;20.14;45.75;101344.63;5032636;28;20124;-61
2022/03/13 01:47:42;;;;;;;7.45;3.47;;;;;;;20.11;45.59;101343.94;5032433;28;20032;-61
2022/03/13 01:50:09;;;;;;;5.78;3.95;;;;;;;20.10;45.44;101331.66;5032993;28;20029;-59
2022/03/13 01:52:35;;;;;;;5.72;3.15;;;;;;;20.10;45.66;101334.31;5032574;28;20029;-60
2022/03/13 01:55:02;;;;;;;6.07;3.22;;;;;;;20.09;45.61;101329.13;5032693;28;20021;-61
2022/03/13 01:57:28;;;;;;;5.13;3.03;;;;;;;20.09;45.66;101329.13;5032829;28;20083;-60
2022/03/13 01:59:56;;;;;;;7.25;3.30;;;;;;;20.09;45.45;101334.44;5032244;28;20036;-61
2022/03/13 02:02:22;;;;;;;5.75;3.10;;;;;;;20.07;45.79;101329.25;5032092;28;20025;-60
2022/03/13 02:04:55;;;;;;;6.00;3.08;;;;;;;20.07;45.58;101331.06;5032730;28;20033;-60
2022/03/13 02:07:21;;;;;;;6.43;3.05;;;;;;;20.07;45.89;101333.72;5032804;28;20381;-60
2022/03/13 02:09:48;;;;;;;6.07;3.30;;;;;;;20.05;45.62;101320.63;5031923;28;20128;-61
2022/03/13 02:12:13;;;;;;;5.63;2.80;;;;;;;20.03;45.55;101319.91;5032536;28;20072;-60
2022/03/13 02:14:39;;;;;;;5.40;3.17;;;;;;;20.04;45.62;101321.56;5031452;28;20132;-60
2022/03/13 02:17:04;;;;;;;5.53;3.30;;;;;;;20.02;45.54;101317.41;5034403;28;20025;-60
2022/03/13 02:19:29;;;;;;;5.07;3.00;;;;;;;20.03;45.88;101314.63;5036666;28;20113;-60
2022/03/13 02:21:56;;;;;;;5.97;2.97;;;;;;;20.05;45.66;101323.25;5035958;28;20274;-61
2022/03/13 02:24:26;;;;;;;6.25;3.42;;;;;;;20.04;45.57;101328.69;5036800;28;20041;-60
2022/03/13 02:27:04;;;;;;;6.07;3.30;;;;;;;20.01;45.56;101332.44;5035971;28;20370;-60
2022/03/13 02:29:30;;;;;;;5.22;3.03;;;;;;;20.00;45.43;101330.75;5036167;28;20030;-60
2022/03/13 02:31:57;;;;;;;5.75;3.38;;;;;;;19.98;45.64;101329.19;5036362;28;20104;-60
2022/03/13 02:34:23;;;;;;;6.43;3.03;;;;;;;19.97;45.54;101325.69;5036281;28;20017;-60
2022/03/13 02:36:49;;;;;;;5.38;3.10;;;;;;;19.98;45.46;101330.03;5035560;28;20037;-60
2022/03/13 02:39:15;;;;;;;6.55;3.13;;;;;;;19.97;45.40;101325.69;5036280;28;20045;-60
2022/03/13 02:41:41;;;;;;;5.93;3.10;;;;;;;19.97;45.65;101320.41;5035632;28;20428;-61
2022/03/13 02:44:08;;;;;;;7.38;3.30;;;;;;;19.97;45.60;101319.59;5035693;28;20536;-60
2022/03/13 02:46:54;;;;;;;6.00;3.13;;;;;;;19.96;45.39;101318.72;5035994;28;20076;-60
2022/03/13 02:49:23;;;;;;;6.05;3.17;;;;;;;19.95;45.54;101322.34;5035903;28;20511;-60
2022/03/13 02:51:51;;;;;;;4.82;3.17;;;;;;;19.93;45.57;101314.53;5035291;28;20062;-60
2022/03/13 02:54:16;;;;;;;5.45;3.15;;;;;;;19.94;45.70;101315.38;5035948;28;20036;-60
2022/03/13 02:56:42;;;;;;;5.53;3.00;;;;;;;19.92;45.49;101310.19;5035577;28;20018;-60
2022/03/13 02:59:09;;;;;;;6.00;2.70;;;;;;;19.91;45.24;101305.88;5036117;28;20044;-60
2022/03/13 03:01:37;;;;;;;5.47;3.05;;;;;;;19.94;45.56;101312.72;5035471;28;20026;-60
2022/03/13 03:04:02;;;;;;;5.68;3.40;;;;;;;19.94;45.47;101304.78;5035344;28;20028;-60
2022/03/13 03:06:29;;;;;;;5.60;3.13;;;;;;;19.92;45.70;101301.44;5035847;28;20104;-62
2022/03/13 03:08:55;;;;;;;5.70;3.38;;;;;;;19.90;45.57;101298.91;5035281;28;20124;-60
2022/03/13 03:11:21;;;;;;;5.53;3.03;;;;;;;19.91;45.41;101300.56;5034425;28;20543;-60
2022/03/13 03:13:46;;;;;;;6.18;3.15;;;;;;;19.87;45.59;101290.41;5034500;28;20033;-60
2022/03/13 03:16:12;;;;;;;6.72;3.35;;;;;;;19.89;45.79;101299.88;5034347;28;20437;-60
2022/03/13 03:18:37;;;;;;;5.45;3.30;;;;;;;19.87;45.74;101299.16;5033640;28;20021;-60
2022/03/13 03:21:03;;;;;;;6.47;3.40;;;;;;;19.87;45.96;101291.22;5034299;28;20025;-60
2022/03/13 03:23:28;;;;;;;5.75;2.80;;;;;;;19.88;45.84;101298.19;5034102;28;20053;-60
2022/03/13 03:25:53;;;;;;;6.20;3.28;;;;;;;19.85;45.95;101293.16;5033793;28;20116;-60
2022/03/13 03:28:19;;;;;;;6.57;3.75;;;;;;;19.86;45.80;101294.84;5033872;28;20100;-60
2022/03/13 03:30:44;;;;;;;5.90;3.47;;;;;;;19.84;45.81;101291.47;5033839;28;20017;-60
2022/03/13 03:33:10;;;;;;;6.50;3.38;;;;;;;19.81;45.94;101275.84;5033721;28;20028;-60
2022/03/13 03:35:35;;;;;;;5.85;3.22;;;;;;;19.84;45.81;101286.19;5033910;28;20021;-60
2022/03/13 03:38:00;;;;;;;6.30;3.35;;;;;;;19.84;45.72;101283.53;5033965;28;20461;-60
2022/03/13 03:40:28;;;;;;;6.00;3.40;;;;;;;19.85;46.06;101284.38;5033791;28;20088;-60
2022/03/13 03:42:55;;;;;;;5.15;3.58;;;;;;;19.84;46.09;101282.72;5033996;28;20033;-60
2022/03/13 03:45:21;;;;;;;6.30;3.40;;;;;;;19.82;45.79;101285.47;5033928;28;20026;-60
2022/03/13 03:47:46;;;;;;;5.97;3.83;;;;;;;19.83;45.83;101289.78;5033304;28;20113;-60
2022/03/13 03:50:12;;;;;;;6.25;3.60;;;;;;;19.83;45.72;101288.97;5033811;28;20490;-60
2022/03/13 03:52:38;;;;;;;5.60;3.17;;;;;;;19.81;45.92;101277.66;5033288;28;20083;-61
2022/03/13 03:55:04;;;;;;;6.05;3.35;;;;;;;19.81;45.87;101286.44;5033246;28;20029;-61
2022/03/13 03:57:29;;;;;;;6.05;3.55;;;;;;;19.82;45.83;101284.63;5033921;28;20113;-61
2022/03/13 03:59:56;;;;;;;6.93;3.58;;;;;;;19.81;45.90;101285.59;5033430;28;20029;-61
2022/03/13 04:02:22;;;;;;;5.63;3.50;;;;;;;19.80;45.98;101279.47;5033489;28;20380;-61
2022/03/13 04:04:47;;;;;;;5.65;3.70;;;;;;;19.80;45.84;101276.81;5033184;28;20105;-61
2022/03/13 04:07:13;;;;;;;5.43;3.08;;;;;;;19.81;45.90;101277.66;5033060;28;20461;-61
2022/03/13 04:09:39;;;;;;;6.38;3.75;;;;;;;19.81;45.64;101272.38;5033392;28;20064;-61
2022/03/13 04:12:08;;;;;;;5.03;3.17;;;;;;;19.80;45.85;101268.06;4997366;28;1055084;-61
2022/03/13 04:14:36;;;;;;;6.70;3.95;;;;;;;19.80;45.74;101271.53;5034118;28;20044;-61
2022/03/13 04:17:03;;;;;;;5.07;3.30;;;;;;;19.80;45.96;101275.97;5034600;28;20080;-61
2022/03/13 04:19:28;;;;;;;6.60;3.95;;;;;;;19.81;46.03;101278.50;5034166;28;20025;-61
2022/03/13 04:21:55;;;;;;;5.57;3.53;;;;;;;19.76;46.02;101270.13;5033898;28;20024;-61
2022/03/13 04:24:21;;;;;;;6.13;3.80;;;;;;;19.77;46.19;101274.41;5034502;28;20074;-61
2022/03/13 04:26:48;;;;;;;6.28;3.63;;;;;;;19.78;46.24;101275.28;5034081;28;20017;-61
2022/03/13 04:29:14;;;;;;;5.22;3.17;;;;;;;19.72;45.90;101274.75;5033939;28;20032;-61
2022/03/13 04:31:41;;;;;;;6.22;3.70;;;;;;;19.75;46.02;101273.69;5034035;28;20030;-61
2022/03/13 04:34:06;;;;;;;6.85;4.03;;;;;;;19.75;46.02;101271.88;5034026;28;20086;-61
2022/03/13 04:36:33;;;;;;;6.97;3.50;;;;;;;19.75;45.98;101277.16;5033815;28;20013;-62
2022/03/13 04:38:59;;;;;;;6.65;3.78;;;;;;;19.76;46.08;101267.47;5033618;28;20030;-61
2022/03/13 04:41:25;;;;;;;6.47;3.53;;;;;;;19.76;46.14;101267.47;5033946;28;20043;-61
2022/03/13 04:43:50;;;;;;;6.68;3.83;;;;;;;19.76;46.01;101267.47;5033265;28;20397;-63
2022/03/13 04:46:16;;;;;;;7.35;4.30;;;;;;;19.74;46.04;101262.28;5034160;28;20036;-61
2022/03/13 04:48:41;;;;;;;6.20;3.88;;;;;;;19.75;45.93;101269.22;5033293;28;20102;-61
2022/03/13 04:51:06;;;;;;;6.70;4.05;;;;;;;19.74;45.85;101272.84;5033549;28;20057;-61
2022/03/13 04:53:34;;;;;;;7.82;4.82;;;;;;;19.74;45.99;101269.34;5033818;28;20026;-61
2022/03/13 04:56:00;;;;;;;8.10;3.90;;;;;;;19.71;46.38;101270.44;5033687;28;20032;-62
2022/03/13 04:58:25;;;;;;;7.65;3.55;;;;;;;19.72;46.14;101279.22;5033520;28;20025;-61
2022/03/13 05:00:51;;;;;;;7.10;4.20;;;;;;;19.71;46.21;101277.53;5033202;28;20013;-60
2022/03/13 05:03:17;;;;;;;7.55;4.40;;;;;;;19.72;46.10;101272.13;5033506;28;20026;-61
2022/03/13 05:05:42;;;;;;;7.70;3.72;;;;;;;19.70;46.24;101273.22;5033342;28;20028;-61
2022/03/13 05:08:14;;;;;;;7.90;3.80;;;;;;;19.71;46.15;101264.31;5033487;28;20397;-61
2022/03/13 05:10:40;;;;;;;7.10;3.40;;;;;;;19.71;46.28;101262.53;5032538;28;20045;-61
2022/03/13 05:13:07;;;;;;;7.22;3.83;;;;;;;19.69;46.08;101261.81;5033571;28;20033;-61
2022/03/13 05:15:33;;;;;;;7.72;4.28;;;;;;;19.69;45.91;101260.94;5033283;28;20028;-61
2022/03/13 05:17:59;;;;;;;5.75;3.70;;;;;;;19.69;45.82;101258.31;5032877;28;20108;-61
2022/03/13 05:20:24;;;;;;;6.75;4.05;;;;;;;19.69;45.78;101261.81;5033550;28;20488;-61
2022/03/13 05:22:50;;;;;;;7.63;4.53;;;;;;;19.67;45.79;101263.72;5032918;28;20036;-61
2022/03/13 05:25:15;;;;;;;6.70;3.85;;;;;;;19.67;45.75;101265.53;5032813;28;20080;-61
2022/03/13 05:27:41;;;;;;;8.13;4.07;;;;;;;19.66;45.82;101266.50;5032887;28;20025;-59
2022/03/13 05:30:08;;;;;;;7.57;4.10;;;;;;;19.65;45.77;101263.00;5032977;28;20061;-59
2022/03/13 05:32:35;;;;;;;6.80;4.47;;;;;;;19.65;45.90;101264.81;5032508;28;20022;-60
2022/03/13 05:35:01;;;;;;;6.10;4.07;;;;;;;19.68;45.88;101267.22;5033133;28;20155;-60
2022/03/13 05:37:26;;;;;;;6.38;4.20;;;;;;;19.66;45.82;101267.34;5033036;28;20500;-60
2022/03/13 05:39:52;;;;;;;6.50;4.45;;;;;;;19.66;45.95;101264.72;5032226;28;20079;-60
2022/03/13 05:42:19;;;;;;;6.60;4.30;;;;;;;19.65;45.64;101259.53;5033128;28;20030;-60
2022/03/13 05:44:44;;;;;;;7.45;4.40;;;;;;;19.65;45.96;101262.19;5032232;28;20377;-60
2022/03/13 05:47:09;;;;;;;7.37;3.90;;;;;;;19.62;45.94;101268.56;5032397;28;20025;-60
2022/03/13 05:49:35;;;;;;;7.27;4.43;;;;;;;19.62;45.69;101273.84;5032514;28;20781;-60
2022/03/13 05:52:00;;;;;;;6.78;4.10;;;;;;;19.61;45.57;101272.16;5032531;28;20604;-60
2022/03/13 05:54:26;;;;;;;9.15;4.15;;;;;;;19.62;45.82;101271.19;5032240;28;20032;-60
2022/03/13 05:56:52;;;;;;;6.47;3.88;;;;;;;19.62;45.82;101268.56;5032450;28;20032;-60
2022/03/13 05:59:17;;;;;;;7.15;3.90;;;;;;;19.62;45.74;101273.00;5032259;28;20025;-61
2022/03/13 06:01:43;;;;;;;7.82;4.15;;;;;;;19.62;45.69;101278.28;5031809;28;20048;-60
2022/03/13 06:04:08;;;;;;;8.27;3.90;;;;;;;19.60;45.61;101269.63;5032435;28;20326;-60
2022/03/13 06:06:34;;;;;;;7.57;4.45;;;;;;;19.58;45.36;101270.59;5032356;28;20329;-61
2022/03/13 06:09:00;;;;;;;7.65;4.03;;;;;;;19.60;45.63;101267.84;5032015;28;20030;-61
2022/03/13 06:11:25;;;;;;;6.82;3.78;;;;;;;19.68;46.50;101283.91;5032227;28;20120;-61
2022/03/13 06:13:51;;;;;;;7.28;3.60;;;;;;;19.73;47.02;101278.25;5031611;28;20471;-61
2022/03/13 06:16:16;;;;;;;7.23;3.77;;;;;;;19.78;47.12;101273.47;5032468;28;20029;-61
2022/03/13 06:18:42;;;;;;;8.25;3.72;;;;;;;19.82;47.07;101271.41;5031854;28;20277;-60
2022/03/13 06:21:07;;;;;;;6.10;3.40;;;;;;;19.88;46.88;101273.53;5032108;28;20171;-61
2022/03/13 06:23:33;;;;;;;6.97;4.20;;;;;;;19.91;46.89;101274.13;5032454;28;20018;-60
2022/03/13 06:26:00;;;;;;;8.13;3.47;;;;;;;19.96;47.36;101275.56;5032051;28;20477;-60
2022/03/13 06:28:26;;;;;;;8.23;4.05;;;;;;;20.01;46.99;101278.66;5031818;28;20447;-61
2022/03/13 06:30:52;;;;;;;6.75;3.60;;;;;;;20.02;47.22;101280.34;5031931;28;20427;-61
2022/03/13 06:33:17;;;;;;;6.70;3.58;;;;;;;20.06;47.31;101279.13;5032019;28;20445;-61
2022/03/13 06:35:45;;;;;;;7.38;3.63;;;;;;;20.08;47.09;101275.38;5031765;28;20028;-62
2022/03/13 06:38:10;;;;;;;5.80;3.25;;;;;;;20.10;46.87;101286.69;5032256;28;20025;-61
2022/03/13 06:40:35;;;;;;;6.30;3.30;;;;;;;20.14;47.03;101284.63;5031717;28;20029;-60
2022/03/13 06:43:01;;;;;;;5.32;3.25;;;;;;;20.16;47.06;101284.50;5031799;28;20029;-61
2022/03/13 06:45:27;;;;;;;6.38;3.50;;;;;;;20.17;46.99;101275.59;5031985;28;20021;-61
2022/03/13 06:47:55;;;;;;;8.10;3.20;;;;;;;20.19;47.21;101271.84;5032100;28;20029;-61
2022/03/13 06:50:23;;;;;;;5.50;3.20;;;;;;;20.21;46.96;101272.56;5031638;28;20032;-61
2022/03/13 06:52:52;;;;;;;5.97;3.35;;;;;;;20.24;46.72;101280.25;5032005;28;20079;-61
2022/03/13 06:55:20;;;;;;;7.28;3.50;;;;;;;20.27;46.56;101279.16;5031799;28;20473;-61
2022/03/13 06:57:45;;;;;;;5.43;3.55;;;;;;;20.27;46.77;101280.00;5031259;28;20026;-61
2022/03/13 07:00:12;;;;;;;5.97;3.22;;;;;;;20.26;46.69;101277.47;5031797;28;20028;-61
2022/03/13 07:02:38;;;;;;;7.38;3.50;;;;;;;20.30;46.54;101278.91;5032504;28;20022;-61
2022/03/13 07:05:03;;;;;;;7.35;3.45;;;;;;;20.33;47.02;101280.44;5035261;28;20040;-61
2022/03/13 07:07:29;;;;;;;6.20;2.95;;;;;;;20.36;46.62;101277.53;5035308;28;20025;-61
2022/03/13 07:09:56;;;;;;;6.17;3.30;;;;;;;20.38;46.07;101273.81;5034853;28;20128;-61
2022/03/13 07:12:22;;;;;;;6.80;3.20;;;;;;;20.40;46.21;101281.63;5035274;28;20349;-61
2022/03/13 07:14:48;;;;;;;5.47;3.05;;;;;;;20.40;46.46;101290.38;5035046;28;20025;-60
2022/03/13 07:17:14;;;;;;;5.97;2.88;;;;;;;20.40;46.56;101282.44;5034856;28;20516;-60
2022/03/13 07:19:43;;;;;;;5.82;3.30;;;;;;;20.43;46.62;101284.84;5035247;28;20396;-60
2022/03/13 07:22:10;;;;;;;7.00;3.20;;;;;;;20.44;46.71;101281.22;5035138;28;20036;-60
2022/03/13 07:24:35;;;;;;;6.38;3.45;;;;;;;20.47;46.60;101280.97;5034399;28;20503;-60
2022/03/13 07:27:01;;;;;;;5.85;3.20;;;;;;;20.50;46.41;101279.84;5035209;28;20029;-62
2022/03/13 07:29:26;;;;;;;6.93;3.30;;;;;;;20.49;45.56;101280.84;5035146;28;20120;-61
2022/03/13 07:31:52;;;;;;;7.85;3.70;;;;;;;20.46;45.02;101276.63;5034489;28;20030;-61
2022/03/13 07:34:17;;;;;;;7.75;3.28;;;;;;;20.41;45.72;101278.84;5035136;28;20342;-62
2022/03/13 07:36:43;;;;;;;7.13;3.05;;;;;;;20.39;46.07;101274.63;5034829;28;20100;-63
2022/03/13 07:39:08;;;;;;;6.03;3.00;;;;;;;20.38;46.09;101286.22;5034397;28;20029;-63
2022/03/13 07:41:33;;;;;;;8.43;4.47;;;;;;;20.33;44.93;101264.56;5034640;28;20340;-63
2022/03/13 07:43:59;;;;;;;6.75;3.33;;;;;;;20.33;45.67;101278.66;5035835;28;20283;-66
2022/03/13 07:46:24;;;;;;;5.93;2.92;;;;;;;20.34;46.51;101264.44;5036176;28;20024;-65
2022/03/13 07:48:49;;;;;;;7.80;3.15;;;;;;;20.41;46.96;101265.59;5036550;28;20473;-63
2022/03/13 07:51:19;;;;;;;6.15;3.38;;;;;;;20.54;47.03;101275.16;5036038;28;20491;-63
2022/03/13 07:53:47;;;;;;;5.80;3.22;;;;;;;20.67;47.00;101270.53;5034421;28;20062;-65
2022/03/13 07:56:13;;;;;;;6.38;3.58;;;;;;;20.84;46.53;101277.88;5034541;28;20359;-65
2022/03/13 07:58:38;;;;;;;5.10;3.10;;;;;;;20.95;46.29;101263.69;5034621;28;20080;-62
2022/03/13 08:01:03;;;;;;;6.50;3.35;;;;;;;21.06;45.61;101264.56;5034241;28;20381;-63
2022/03/13 08:03:34;;;;;;;6.25;3.40;;;;;;;21.08;45.70;101271.41;5034506;28;20025;-65
2022/03/13 08:06:00;;;;;;;6.75;3.75;;;;;;;21.13;45.38;101273.66;5034778;28;20025;-65
2022/03/13 08:08:25;;;;;;;6.40;3.58;;;;;;;21.16;45.52;101271.56;5034074;28;20070;-64
2022/03/13 08:10:50;;;;;;;7.50;3.30;;;;;;;21.17;45.47;101275.91;5033912;28;20050;-66
2022/03/13 08:13:15;;;;;;;8.80;3.63;;;;;;;21.19;45.49;101267.81;5033945;28;20056;-68
2022/03/13 08:15:41;;;;;;;8.13;3.60;;;;;;;21.24;45.16;101270.03;5033128;28;20290;-62
2022/03/13 08:18:06;;;;;;;8.40;3.85;;;;;;;21.25;45.43;101261.97;5034240;28;20793;-62
2022/03/13 08:20:31;;;;;;;6.82;3.78;;;;;;;21.25;46.31;101264.59;5034092;28;20431;-63
2022/03/13 08:22:57;;;;;;;9.65;4.07;;;;;;;21.26;46.25;101266.31;5034093;28;20018;-63
2022/03/13 08:25:24;;;;;;;9.03;3.67;;;;;;;21.25;46.34;101263.78;5033990;28;20033;-62
2022/03/13 08:27:49;;;;;;;10.40;4.10;;;;;;;21.28;46.43;101268.81;5033442;28;20282;-62
2022/03/13 08:30:14;;;;;;;7.78;3.75;;;;;;;21.32;46.75;101264.94;5034331;28;20075;-61
2022/03/13 08:32:40;;;;;;;10.02;4.30;;;;;;;21.36;46.41;101279.56;5033722;28;20034;-60
2022/03/13 08:35:07;;;;;;;7.03;3.47;;;;;;;21.38;46.56;101265.22;5033857;28;20021;-62
2022/03/13 08:37:32;;;;;;;10.35;4.20;;;;;;;21.40;46.53;101270.38;5034088;28;20018;-64
2022/03/13 08:39:58;;;;;;;6.38;3.72;;;;;;;21.41;46.29;101266.75;5033475;28;20040;-64
2022/03/13 08:42:23;;;;;;;7.80;3.58;;;;;;;21.41;46.20;101268.56;5033315;28;20022;-63
2022/03/13 08:44:48;;;;;;;9.63;4.45;;;;;;;21.36;44.73;101267.19;5033584;28;20071;-61
2022/03/13 08:47:14;;;;;;;10.40;4.68;;;;;;;21.32;44.77;101264.94;5033760;28;20469;-62
2022/03/13 08:49:39;;;;;;;8.45;4.40;;;;;;;21.32;46.14;101264.94;5033005;28;20459;-62
2022/03/13 08:52:04;;;;;;;9.20;4.20;;;;;;;21.31;45.77;101266.72;5033781;28;20067;-63
2022/03/13 08:54:30;;;;;;;7.38;4.25;;;;;;;21.34;46.01;101261.16;5033510;28;20025;-62
2022/03/13 08:56:55;;;;;;;6.83;3.80;;;;;;;21.34;45.76;101265.63;5032704;28;20030;-61
2022/03/13 08:59:20;;;;;;;8.23;3.53;;;;;;;21.32;45.74;101265.75;5033587;28;20357;-61
2022/03/13 09:01:47;;;;;;;7.57;3.87;;;;;;;21.28;46.07;101253.75;5033116;28;20025;-61
2022/03/13 09:04:13;;;;;;;9.55;4.10;;;;;;;21.27;46.39;101245.91;5032850;28;20619;-62
2022/03/13 09:06:39;;;;;;;8.05;3.67;;;;;;;21.27;45.61;101254.72;5032965;28;20534;-63
2022/03/13 09:09:06;;;;;;;8.50;4.00;;;;;;;21.27;45.72;101253.88;5033304;28;20389;-63
2022/03/13 09:11:33;;;;;;;8.05;3.60;;;;;;;21.27;45.83;101249.44;5032765;28;20042;-63
2022/03/13 09:13:58;;;;;;;9.15;4.07;;;;;;;21.28;46.08;101244.97;5033344;28;20022;-64
2022/03/13 09:16:26;;;;;;;6.57;3.70;;;;;;;21.28;45.50;101244.97;5033407;28;20496;-61
2022/03/13 09:18:52;;;;;;;13.57;4.65;;;;;;;21.27;45.52;101252.09;5032394;28;20283;-65
2022/03/13 09:21:17;;;;;;;7.78;4.13;;;;;;;21.31;45.57;101248.16;5032912;28;20033;-63
2022/03/13 09:23:42;;;;;;;6.60;3.67;;;;;;;21.33;45.62;101237.44;5032197;28;20071;-62
2022/03/13 09:26:08;;;;;;;8.65;4.35;;;;;;;21.37;45.95;101242.31;5032939;28;20033;-63
2022/03/13 09:28:33;;;;;;;9.63;4.30;;;;;;;21.41;45.48;101244.72;5032846;28;20063;-65
2022/03/13 09:30:59;;;;;;;7.90;4.28;;;;;;;21.41;45.61;101228.78;5032999;28;20274;-63
2022/03/13 09:33:24;;;;;;;7.28;4.35;;;;;;;21.45;45.48;101240.81;5033027;28;20172;-65
2022/03/13 09:35:51;;;;;;;7.90;4.25;;;;;;;21.45;46.25;101235.50;5032485;28;20113;-62
2022/03/13 09:38:16;;;;;;;7.30;4.32;;;;;;;21.44;46.01;101239.13;5032319;28;20508;-64
2022/03/13 09:40:42;;;;;;;8.30;4.07;;;;;;;21.47;45.83;101247.63;5032814;28;20033;-63
2022/03/13 09:43:07;;;;;;;7.82;4.00;;;;;;;21.47;45.79;101245.00;5032778;28;20024;-62
2022/03/13 09:45:33;;;;;;;7.50;4.40;;;;;;;21.45;45.96;101240.81;5032460;28;20025;-63
2022/03/13 09:48:01;;;;;;;8.23;4.35;;;;;;;21.44;45.92;101242.59;5032939;28;20025;-64
2022/03/13 09:50:28;;;;;;;6.93;3.90;;;;;;;21.43;46.23;101243.59;5032408;28;20036;-64
2022/03/13 09:52:53;;;;;;;9.32;4.63;;;;;;;21.44;46.48;101236.47;5031858;28;20028;-64
2022/03/13 09:55:19;;;;;;;7.85;4.18;;;;;;;21.44;46.36;101241.78;5032889;28;20025;-64
2022/03/13 09:57:46;;;;;;;7.22;4.15;;;;;;;21.42;46.61;101236.63;5032304;28;20079;-63
2022/03/13 10:00:14;;;;;;;8.80;4.13;;;;;;;21.40;46.57;101235.91;5032309;28;20025;-61
2022/03/13 10:02:40;;;;;;;10.13;4.25;;;;;;;21.38;46.88;101233.41;5032190;28;20034;-61
2022/03/13 10:05:09;;;;;;;9.35;4.13;;;;;;;21.37;46.75;101231.72;5032696;28;20030;-62
2022/03/13 10:07:54;;;;;;;7.50;4.00;;;;;;;21.35;46.58;101231.03;5031589;28;20048;-63
2022/03/13 10:10:22;;;;;;;8.30;4.20;;;;;;;21.35;46.65;101227.56;5032192;28;20034;-63
2022/03/13 10:12:47;;;;;;;8.40;4.30;;;;;;;21.37;46.29;101229.06;5031855;28;20021;-64
2022/03/13 10:15:13;;;;;;;7.72;4.32;;;;;;;21.40;46.77;101229.78;5032642;28;20033;-63
2022/03/13 10:17:40;;;;;;;8.23;4.05;;;;;;;21.40;46.76;101221.84;5031986;28;20025;-63
2022/03/13 10:20:19;;;;;;;7.50;3.92;;;;;;;21.42;46.69;101219.88;5032002;28;20029;-62
2022/03/13 10:22:47;;;;;;;9.40;4.40;;;;;;;21.43;46.21;101218.88;5032209;28;20036;-63
2022/03/13 10:25:14;;;;;;;8.95;4.30;;;;;;;21.42;46.35;101220.72;5032257;28;20072;-63
2022/03/13 10:27:41;;;;;;;6.63;3.83;;;;;;;21.39;46.54;101207.72;5031768;28;20124;-61
2022/03/13 10:30:08;;;;;;;7.38;4.20;;;;;;;21.41;46.16;101212.88;5032383;28;20029;-60
2022/03/13 10:32:34;;;;;;;7.15;4.05;;;;;;;21.38;46.65;101200.78;5031960;28;20059;-62
2022/03/13 10:35:01;;;;;;;7.55;3.90;;;;;;;21.35;45.84;101211.66;5032099;28;20041;-63
2022/03/13 10:37:43;;;;;;;8.50;4.18;;;;;;;21.33;46.32;101203.81;5032809;28;20520;-63
2022/03/13 10:40:15;;;;;;;7.00;3.72;;;;;;;21.33;46.83;101195.88;5036395;28;20449;-63
2022/03/13 10:42:44;;;;;;;8.15;4.30;;;;;;;21.35;46.27;101195.75;5035469;28;20034;-62
2022/03/13 10:45:12;;;;;;;6.75;3.53;;;;;;;21.36;46.44;101203.56;5035966;28;20100;-63
2022/03/13 10:47:38;;;;;;;8.75;3.97;;;;;;;21.37;46.35;101197.25;5036117;28;20053;-63
2022/03/13 10:50:04;;;;;;;11.27;4.30;;;;;;;21.38;46.72;101201.59;5035655;28;20053;-64
2022/03/13 10:52:43;;;;;;;8.50;3.75;;;;;;;21.39;45.77;101199.78;5035828;28;20427;-64
2022/03/13 10:55:24;;;;;;;7.05;4.05;;;;;;;21.39;46.30;101197.13;5035477;28;20108;-63
2022/03/13 10:57:54;;;;;;;6.07;3.67;;;;;;;21.39;46.44;101197.13;5035934;28;20029;-64
2022/03/13 11:00:21;;;;;;;8.18;4.03;;;;;;;21.36;45.92;101187.66;5036043;28;20026;-64
2022/03/13 11:02:48;;;;;;;8.30;3.88;;;;;;;21.40;46.24;101192.69;5035095;28;20376;-66
2022/03/13 11:05:13;;;;;;;6.45;3.45;;;;;;;21.41;46.48;101186.38;5036030;28;20022;-64
2022/03/13 11:07:39;;;;;;;6.10;3.45;;;;;;;21.44;46.62;101188.75;5035217;28;20037;-65
2022/03/13 11:10:07;;;;;;;6.45;3.47;;;;;;;21.47;46.86;101180.53;5035236;28;20116;-63
2022/03/13 11:12:34;;;;;;;10.18;3.80;;;;;;;21.45;46.78;101180.66;5035825;28;20041;-62
2022/03/13 11:15:01;;;;;;;6.20;3.20;;;;;;;21.46;46.98;101178.84;5035774;28;20048;-64
2022/03/13 11:17:30;;;;;;;6.72;3.58;;;;;;;21.46;47.12;101178.84;5035350;28;20034;-65
2022/03/13 11:19:57;;;;;;;6.38;3.35;;;;;;;21.44;47.27;101180.81;5035136;28;20033;-66